createdAt,value
2023-01-22T00:01:47.039Z,28.72
2023-01-22T00:03:46.533Z,28.72
2023-01-22T00:05:43.263Z,28.72
2023-01-22T00:07:43.837Z,28.72
2023-01-22T00:09:43.549Z,28.72
2023-01-22T00:11:43.898Z,28.72
2023-01-22T00:13:43.201Z,28.72
2023-01-22T00:15:44.329Z,28.72
2023-01-22T00:17:44.306Z,28.72
2023-01-22T00:19:42.667Z,28.72
2023-01-22T00:21:43.172Z,28.72
2023-01-22T00:23:42.878Z,28.72
2023-01-22T00:25:43.079Z,28.72
2023-01-22T00:27:42.832Z,28.72
2023-01-22T00:29:43.468Z,28.72
2023-01-22T00:31:43.581Z,28.72
2023-01-22T00:33:43.960Z,28.72
2023-01-22T00:35:43.147Z,28.72
2023-01-22T00:37:43.859Z,28.72
2023-01-22T00:39:43.194Z,28.72
2023-01-22T00:41:42.752Z,10800.3
2023-01-22T00:43:43.453Z,10800.3
2023-01-22T00:45:43.059Z,10800.3
2023-01-22T00:47:43.746Z,10800.3
2023-01-22T00:49:42.933Z,10800.3
2023-01-22T00:51:44.221Z,10800.3
2023-01-22T00:53:43.213Z,10800.3
2023-01-22T00:55:43.515Z,10800.3
2023-01-22T00:57:43.158Z,10800.3
2023-01-22T00:59:44.167Z,10800.3
2023-01-22T01:01:47.042Z,10800.3
2023-01-22T01:03:43.179Z,10800.3
2023-01-22T01:05:43.559Z,10800.3
2023-01-22T01:07:43.045Z,10800.3
2023-01-22T01:09:43.588Z,10800.3
2023-01-22T01:11:43.042Z,10800.3
2023-01-22T01:13:42.610Z,10800.3
2023-01-22T01:15:43.411Z,10800.3
2023-01-22T01:17:44.160Z,10800.3
2023-01-22T01:19:43.431Z,10800.3
2023-01-22T01:21:42.775Z,10800.3
2023-01-22T01:23:43.286Z,10800.3
2023-01-22T01:25:42.626Z,10800.3
2023-01-22T01:27:43.206Z,10800.3
2023-01-22T01:29:43.887Z,10800.3
2023-01-22T01:31:44.160Z,10800.3
2023-01-22T01:33:43.065Z,10800.3
2023-01-22T01:35:46.791Z,10800.3
2023-01-22T01:38:06.470Z,10800.3
2023-01-22T01:39:43.393Z,10800.3
2023-01-22T01:41:42.955Z,10800.3
2023-01-22T01:43:43.601Z,10800.3
2023-01-22T01:45:43.309Z,10800.3
2023-01-22T01:47:44.182Z,10800.3
2023-01-22T01:49:43.163Z,10800.3
2023-01-22T01:51:44.259Z,10800.3
2023-01-22T01:53:43.552Z,10800.3
2023-01-22T01:55:42.733Z,10800.3
2023-01-22T01:57:43.397Z,10800.3
2023-01-22T01:59:42.835Z,10800.3
2023-01-22T02:01:51.139Z,10800.3
2023-01-22T02:03:43.487Z,10800.3
2023-01-22T02:05:42.755Z,10800.3
2023-01-22T02:07:43.420Z,10800.3
2023-01-22T02:09:42.799Z,10800.3
2023-01-22T02:11:43.344Z,10800.3
2023-01-22T02:13:42.957Z,10800.3
2023-01-22T02:15:43.595Z,10800.3
2023-01-22T02:17:43.222Z,10800.3
2023-01-22T02:19:43.321Z,10800.3
2023-01-22T02:21:43.093Z,10800.3
2023-01-22T02:23:43.601Z,10800.3
2023-01-22T02:25:42.883Z,10800.3
2023-01-22T02:27:43.443Z,10800.3
2023-01-22T02:29:43.146Z,10800.3
2023-01-22T02:31:44.166Z,10800.3
2023-01-22T02:33:42.846Z,10800.3
2023-01-22T02:35:43.587Z,10800.3
2023-01-22T02:37:43.025Z,10800.3
2023-01-22T02:39:43.472Z,10800.3
2023-01-22T02:41:43.057Z,10800.3
2023-01-22T02:43:42.742Z,10800.3
2023-01-22T02:45:43.292Z,10800.3
2023-01-22T02:47:43.442Z,10800.3
2023-01-22T02:49:42.910Z,10800.3
2023-01-22T02:51:44.021Z,10800.3
2023-01-22T02:53:42.948Z,10800.3
2023-01-22T02:55:43.312Z,10800.3
2023-01-22T02:57:42.986Z,10800.3
2023-01-22T02:59:42.764Z,10800.3
2023-01-22T03:01:46.875Z,10800.3
2023-01-22T03:03:43.644Z,10800.3
2023-01-22T03:05:43.107Z,10800.3
2023-01-22T03:07:43.605Z,10800.3
2023-01-22T03:09:43.159Z,10800.3
2023-01-22T03:11:42.517Z,10800.3
2023-01-22T03:13:43.147Z,10800.3
2023-01-22T03:15:42.921Z,10800.3
2023-01-22T03:17:43.358Z,10800.3
2023-01-22T03:19:42.975Z,10800.3
2023-01-22T03:21:43.466Z,10800.3
2023-01-22T03:23:43.139Z,10800.3
2023-01-22T03:25:43.219Z,10800.3
2023-01-22T03:27:43.128Z,10800.3
2023-01-22T03:29:42.812Z,10800.3
2023-01-22T03:31:44.059Z,10800.3
2023-01-22T03:33:43.180Z,10800.3
2023-01-22T03:35:43.509Z,10800.3
2023-01-22T03:37:43.064Z,10800.3
2023-01-22T03:39:43.406Z,10800.3
2023-01-22T03:41:42.979Z,10800.3
2023-01-22T03:43:43.627Z,10800.3
2023-01-22T03:45:43.251Z,10800.3
2023-01-22T03:47:43.598Z,10800.3
2023-01-22T03:49:43.047Z,10800.3
2023-01-22T03:51:43.391Z,10800.3
2023-01-22T03:53:43.015Z,10800.3
2023-01-22T03:55:43.476Z,10800.3
2023-01-22T03:57:43.503Z,10800.3
2023-01-22T03:59:43.722Z,10800.3
2023-01-22T04:01:47.531Z,10800.3
2023-01-22T04:03:43.608Z,10800.3
2023-01-22T04:05:43.033Z,10800.3
2023-01-22T04:07:43.557Z,10800.3
2023-01-22T04:09:42.995Z,10800.3
2023-01-22T04:11:43.623Z,10800.3
2023-01-22T04:13:43.174Z,10800.3
2023-01-22T04:15:43.718Z,10800.3
2023-01-22T04:17:43.510Z,10800.3
2023-01-22T04:19:43.621Z,10800.3
2023-01-22T04:21:43.267Z,10800.3
2023-01-22T04:23:42.695Z,10800.3
2023-01-22T04:25:43.228Z,10800.3
2023-01-22T04:27:42.767Z,10800.3
2023-01-22T04:29:43.439Z,10800.3
2023-01-22T04:31:44.126Z,10800.3
2023-01-22T04:33:43.324Z,10800.3
2023-01-22T04:35:42.878Z,10800.3
2023-01-22T04:37:43.485Z,10800.3
2023-01-22T04:39:42.695Z,10800.3
2023-01-22T04:41:43.171Z,10800.3
2023-01-22T04:43:43.668Z,10800.3
2023-01-22T04:45:43.055Z,10800.3
2023-01-22T04:47:44.003Z,10800.3
2023-01-22T04:49:42.967Z,10800.3
2023-01-22T04:51:44.164Z,10800.3
2023-01-22T04:53:43.104Z,10800.3
2023-01-22T04:55:43.797Z,10800.3
2023-01-22T04:57:43.016Z,10800.3
2023-01-22T04:59:43.490Z,10800.3
2023-01-22T05:01:49.194Z,10800.3
2023-01-22T05:03:43.216Z,10800.3
2023-01-22T05:05:43.478Z,10800.3
2023-01-22T05:07:42.830Z,10800.3
2023-01-22T05:09:43.291Z,10800.3
2023-01-22T05:11:42.787Z,10800.3
2023-01-22T05:13:43.423Z,10800.3
2023-01-22T05:15:58.003Z,10800.3
2023-01-22T05:17:43.465Z,10800.3
2023-01-22T05:19:43.737Z,10800.3
2023-01-22T05:21:43.191Z,10800.3
2023-01-22T05:23:43.582Z,10800.3
2023-01-22T05:25:43.273Z,10800.3
2023-01-22T05:27:43.565Z,10800.3
2023-01-22T05:29:42.843Z,10800.3
2023-01-22T05:31:44.367Z,10800.3
2023-01-22T05:33:45.281Z,10800.3
2023-01-22T05:35:43.404Z,10800.3
2023-01-22T05:37:42.903Z,10800.3
2023-01-22T05:39:46.556Z,10800.3
2023-01-22T05:41:42.768Z,10800.3
2023-01-22T05:43:43.481Z,10800.3
2023-01-22T05:45:42.844Z,10800.3
2023-01-22T05:47:43.541Z,10800.3
2023-01-22T05:49:43.943Z,10800.3
2023-01-22T05:51:43.856Z,10800.3
2023-01-22T05:53:43.549Z,10800.3
2023-01-22T05:55:43.263Z,10800.3
2023-01-22T05:57:43.726Z,10800.3
2023-01-22T05:59:43.411Z,10800.3
2023-01-22T06:01:48.078Z,10800.3
2023-01-22T06:03:43.921Z,10800.3
2023-01-22T06:05:43.404Z,10800.3
2023-01-22T06:07:43.292Z,10800.3
2023-01-22T06:09:43.584Z,10800.3
2023-01-22T06:11:43.328Z,10800.3
2023-01-22T06:13:43.843Z,10800.3
2023-01-22T06:15:43.547Z,10800.3
2023-01-22T06:17:43.699Z,10800.3
2023-01-22T06:19:43.110Z,10800.3
2023-01-22T06:21:44.011Z,10800.3
2023-01-22T06:23:43.052Z,10800.3
2023-01-22T06:25:43.721Z,10800.3
2023-01-22T06:27:43.060Z,10800.3
2023-01-22T06:29:43.537Z,10800.3
2023-01-22T06:31:43.630Z,10800.3
2023-01-22T06:33:43.134Z,10800.3
2023-01-22T06:35:42.785Z,10800.3
2023-01-22T06:37:43.296Z,10800.3
2023-01-22T06:39:42.891Z,10800.3
2023-01-22T06:41:43.704Z,10800.3
2023-01-22T06:43:44.716Z,10800.3
2023-01-22T06:45:43.495Z,10800.3
2023-01-22T06:47:43.279Z,10800.3
2023-01-22T06:49:46.250Z,10800.3
2023-01-22T06:51:43.515Z,10800.3
2023-01-22T06:53:43.620Z,10800.3
2023-01-22T06:55:43.226Z,10800.3
2023-01-22T06:57:42.906Z,10800.3
2023-01-22T06:59:43.417Z,10800.3
2023-01-22T07:01:46.014Z,10800.3
2023-01-22T07:03:43.373Z,10800.3
2023-01-22T07:05:42.927Z,10800.3
2023-01-22T07:07:43.047Z,10800.3
2023-01-22T07:09:43.138Z,10800.3
2023-01-22T07:11:42.826Z,10800.3
2023-01-22T07:13:43.666Z,10800.3
2023-01-22T07:15:56.341Z,10800.3
2023-01-22T07:17:42.942Z,10800.3
2023-01-22T07:19:43.628Z,10800.3
2023-01-22T07:21:42.990Z,10800.3
2023-01-22T07:23:44.923Z,10800.3
2023-01-22T07:25:42.912Z,10800.3
2023-01-22T07:27:43.716Z,10800.3
2023-01-22T07:29:43.244Z,10800.3
2023-01-22T07:31:44.243Z,10800.3
2023-01-22T07:33:42.978Z,10800.3
2023-01-22T07:35:42.891Z,10800.3
2023-01-22T07:37:43.255Z,10800.3
2023-01-22T07:39:42.784Z,10800.3
2023-01-22T07:41:59.534Z,10800.3
2023-01-22T07:43:46.275Z,10800.3
2023-01-22T07:45:43.261Z,10800.3
2023-01-22T07:47:43.076Z,10800.3
2023-01-22T07:49:43.552Z,10800.3
2023-01-22T07:51:44.166Z,10800.3
2023-01-22T07:53:43.502Z,10800.3
2023-01-22T07:55:43.104Z,10800.3
2023-01-22T07:57:43.770Z,10800.3
2023-01-22T07:59:43.115Z,10800.3
2023-01-22T08:01:45.760Z,10800.3
2023-01-22T08:03:45.339Z,10800.3
2023-01-22T08:05:43.290Z,10800.3
2023-01-22T08:07:42.755Z,10800.3
2023-01-22T08:09:43.130Z,10800.3
2023-01-22T08:11:43.021Z,10800.3
2023-01-22T08:13:43.495Z,10800.3
2023-01-22T08:15:42.761Z,10800.3
2023-01-22T08:17:43.813Z,10800.3
2023-01-22T08:19:43.725Z,10800.3
2023-01-22T08:21:43.323Z,10800.3
2023-01-22T08:23:48.160Z,10800.3
2023-01-22T08:25:43.170Z,10800.3
2023-01-22T08:27:43.692Z,10800.3
2023-01-22T08:29:43.129Z,10800.3
2023-01-22T08:32:08.647Z,10800.3
2023-01-22T08:33:43.760Z,10800.3
2023-01-22T08:35:42.858Z,10800.3
2023-01-22T08:37:43.139Z,10800.3
2023-01-22T08:39:42.831Z,10800.3
2023-01-22T08:41:45.777Z,10800.3
2023-01-22T08:43:43.127Z,10800.3
2023-01-22T08:45:43.593Z,10800.3
2023-01-22T08:47:43.088Z,10800.3
2023-01-22T08:49:43.680Z,10800.3
2023-01-22T08:51:44.542Z,10800.3
2023-01-22T08:53:43.471Z,10800.3
2023-01-22T08:55:43.095Z,10800.3
2023-01-22T08:57:43.680Z,10800.3
2023-01-22T08:59:44.891Z,10800.3
2023-01-22T09:01:47.507Z,10800.3
2023-01-22T09:03:43.303Z,10800.3
2023-01-22T09:05:43.507Z,10800.3
2023-01-22T09:07:42.947Z,10800.3
2023-01-22T09:09:43.653Z,10800.3
2023-01-22T09:11:43.909Z,10800.3
2023-01-22T09:13:43.619Z,10800.3
2023-01-22T09:15:42.936Z,10800.3
2023-01-22T09:17:43.183Z,10800.3
2023-01-22T09:19:43.456Z,10800.3
2023-01-22T09:21:42.833Z,10800.3
2023-01-22T09:23:43.415Z,10800.3
2023-01-22T09:25:43.132Z,10800.3
2023-01-22T09:27:43.674Z,10800.3
2023-01-22T09:29:43.904Z,10800.3
2023-01-22T09:31:44.005Z,10800.3
2023-01-22T09:33:43.087Z,10800.3
2023-01-22T09:35:43.228Z,10800.3
2023-01-22T09:37:42.570Z,10800.3
2023-01-22T09:39:43.200Z,10800.3
2023-01-22T09:41:44.088Z,10800.3
2023-01-22T09:43:43.379Z,10800.3
2023-01-22T09:45:42.968Z,10800.3
2023-01-22T09:47:43.663Z,10800.3
2023-01-22T09:49:43.093Z,10800.3
2023-01-22T09:51:43.481Z,10800.3
2023-01-22T09:53:45.542Z,32657.4
2023-01-22T09:55:43.177Z,32657.4
2023-01-22T09:57:54.662Z,32657.4
2023-01-22T09:59:43.080Z,32657.4
2023-01-22T10:01:46.563Z,32657.4
2023-01-22T10:03:45.494Z,32657.4
2023-01-22T10:05:43.389Z,32657.4
2023-01-22T10:07:42.960Z,32657.4
2023-01-22T10:09:43.396Z,32657.4
2023-01-22T10:11:43.044Z,32657.4
2023-01-22T10:13:43.336Z,32657.4
2023-01-22T10:15:42.761Z,32657.4
2023-01-22T10:17:44.037Z,32657.4
2023-01-22T10:19:42.954Z,32657.4
2023-01-22T10:21:43.345Z,32657.4
2023-01-22T10:23:43.039Z,32657.4
2023-01-22T10:25:43.728Z,32657.4
2023-01-22T10:27:45.253Z,32657.4
2023-01-22T10:29:43.451Z,32657.4
2023-01-22T10:31:46.683Z,32657.4
2023-01-22T10:33:45.476Z,32657.4
2023-01-22T10:35:43.454Z,32657.4
2023-01-22T10:37:42.835Z,32657.4
2023-01-22T10:39:46.616Z,32657.4
2023-01-22T10:41:43.061Z,32657.4
2023-01-22T10:43:43.447Z,32657.4
2023-01-22T10:45:43.083Z,32657.4
2023-01-22T10:47:43.933Z,32657.4
2023-01-22T10:49:42.996Z,32657.4
2023-01-22T10:51:46.435Z,32657.4
2023-01-22T10:53:42.985Z,32657.4
2023-01-22T10:55:44.188Z,32657.4
2023-01-22T10:57:43.853Z,32657.4
2023-01-22T10:59:43.987Z,47.05
2023-01-22T11:02:00.160Z,47.05
2023-01-22T11:03:43.103Z,47.05
2023-01-22T11:05:43.379Z,47.05
2023-01-22T11:07:44.168Z,47.05
2023-01-22T11:09:43.345Z,47.05
2023-01-22T11:11:43.049Z,47.05
2023-01-22T11:13:44.778Z,47.05
2023-01-22T11:15:43.137Z,47.05
2023-01-22T11:17:43.881Z,47.05
2023-01-22T11:19:59.296Z,47.05
2023-01-22T11:21:43.486Z,47.05
2023-01-22T11:23:43.158Z,47.05
2023-01-22T11:25:43.926Z,47.05
2023-01-22T11:27:43.058Z,47.05
2023-01-22T11:29:43.464Z,47.05
2023-01-22T11:31:44.736Z,47.05
2023-01-22T11:33:43.667Z,47.05
2023-01-22T11:35:43.011Z,47.05
2023-01-22T11:37:43.520Z,47.05
2023-01-22T11:39:43.172Z,47.05
2023-01-22T11:41:43.656Z,47.05
2023-01-22T11:43:43.042Z,47.05
2023-01-22T11:45:43.809Z,47.05
2023-01-22T11:47:43.705Z,47.05
2023-01-22T11:49:43.797Z,47.05
2023-01-22T11:51:43.738Z,47.05
2023-01-22T11:53:43.015Z,47.05
2023-01-22T11:55:43.348Z,47.05
2023-01-22T11:57:42.923Z,47.05
2023-01-22T11:59:43.774Z,47.05
2023-01-22T12:01:49.294Z,47.05
2023-01-22T12:03:43.762Z,47.05
2023-01-22T12:05:44.029Z,14355.1
2023-01-22T12:07:43.196Z,14355.1
2023-01-22T12:09:43.925Z,14355.1
2023-01-22T12:11:43.137Z,3641.83
2023-01-22T12:13:43.446Z,3641.83
2023-01-22T12:15:43.080Z,3641.83
2023-01-22T12:17:47.477Z,1712.3
2023-01-22T12:19:43.131Z,1712.3
2023-01-22T12:21:43.744Z,1712.3
2023-01-22T12:23:43.019Z,1712.3
2023-01-22T12:25:43.483Z,1712.3
2023-01-22T12:27:44.903Z,1712.3
2023-01-22T12:29:43.308Z,1712.3
2023-01-22T12:31:43.897Z,1712.3
2023-01-22T12:33:43.382Z,2.43
2023-01-22T12:35:42.835Z,2.43
2023-01-22T12:37:43.481Z,811.95
2023-01-22T12:39:42.904Z,811.95
2023-01-22T12:41:43.508Z,811.95
2023-01-22T12:43:42.831Z,732.85
2023-01-22T12:45:43.427Z,732.85
2023-01-22T12:47:43.147Z,732.85
2023-01-22T12:49:43.108Z,695.47
2023-01-22T12:51:46.549Z,695.47
2023-01-22T12:53:43.718Z,695.47
2023-01-22T12:55:44.335Z,668.34
2023-01-22T12:57:43.390Z,668.34
2023-01-22T12:59:43.121Z,668.34
2023-01-22T13:01:46.199Z,624.81
2023-01-22T13:03:54.075Z,624.81
2023-01-22T13:05:43.516Z,624.81
2023-01-22T13:07:45.670Z,607.98
2023-01-22T13:09:43.864Z,607.98
2023-01-22T13:11:43.249Z,607.98
2023-01-22T13:13:45.039Z,1.6
2023-01-22T13:15:56.566Z,1.6
2023-01-22T13:17:42.995Z,1.6
2023-01-22T13:19:49.167Z,575.29
2023-01-22T13:21:42.987Z,575.29
2023-01-22T13:23:44.366Z,575.29
2023-01-22T13:25:43.003Z,559.41
2023-01-22T13:27:43.457Z,559.41
2023-01-22T13:29:43.264Z,559.41
2023-01-22T13:31:44.257Z,559.41
2023-01-22T13:33:43.119Z,559.41
2023-01-22T13:35:43.318Z,559.41
2023-01-22T13:37:42.960Z,543.85
2023-01-22T13:39:43.357Z,543.85
2023-01-22T13:41:58.687Z,543.85
2023-01-22T13:43:43.274Z,543.85
2023-01-22T13:45:42.932Z,543.85
2023-01-22T13:47:43.777Z,543.85
2023-01-22T13:49:45.385Z,543.85
2023-01-22T13:51:43.823Z,543.85
2023-01-22T13:53:43.161Z,543.85
2023-01-22T13:55:43.320Z,543.85
2023-01-22T13:57:42.978Z,543.85
2023-01-22T13:59:56.235Z,543.85
2023-01-22T14:01:49.136Z,543.85
2023-01-22T14:03:43.610Z,543.85
2023-01-22T14:05:42.888Z,543.85
2023-01-22T14:07:43.319Z,543.85
2023-01-22T14:09:43.087Z,543.85
2023-01-22T14:11:43.481Z,543.85
2023-01-22T14:13:43.091Z,543.85
2023-01-22T14:15:43.794Z,543.85
2023-01-22T14:17:43.332Z,543.85
2023-01-22T14:19:43.662Z,543.85
2023-01-22T14:21:43.397Z,543.85
2023-01-22T14:23:43.656Z,543.85
2023-01-22T14:25:43.226Z,543.85
2023-01-22T14:27:42.687Z,543.85
2023-01-22T14:29:43.466Z,543.85
2023-01-22T14:31:43.890Z,543.85
2023-01-22T14:33:46.656Z,543.85
2023-01-22T14:35:43.050Z,543.85
2023-01-22T14:37:43.512Z,543.85
2023-01-22T14:39:43.074Z,543.85
2023-01-22T14:41:43.768Z,543.85
2023-01-22T14:43:43.167Z,543.85
2023-01-22T14:45:43.970Z,543.85
2023-01-22T14:47:43.145Z,543.85
2023-01-22T14:49:42.784Z,543.85
2023-01-22T14:51:44.111Z,543.85
2023-01-22T14:53:43.153Z,543.85
2023-01-22T14:55:42.743Z,543.85
2023-01-22T14:57:43.311Z,543.85
2023-01-22T14:59:43.724Z,543.85
2023-01-22T15:01:48.175Z,543.85
2023-01-22T15:03:43.915Z,543.85
2023-01-22T15:05:46.574Z,543.85
2023-01-22T15:07:43.583Z,543.85
2023-01-22T15:09:42.983Z,543.85
2023-01-22T15:11:43.554Z,543.85
2023-01-22T15:13:42.944Z,543.85
2023-01-22T15:15:46.868Z,543.85
2023-01-22T15:17:42.921Z,543.85
2023-01-22T15:19:52.559Z,543.85
2023-01-22T15:21:42.900Z,543.85
2023-01-22T15:23:43.489Z,543.85
2023-01-22T15:25:45.643Z,543.85
2023-01-22T15:27:43.477Z,543.85
2023-01-22T15:29:43.167Z,543.85
2023-01-22T15:31:44.040Z,543.85
2023-01-22T15:33:42.849Z,543.85
2023-01-22T15:35:43.605Z,543.85
2023-01-22T15:37:42.976Z,543.85
2023-01-22T15:39:43.357Z,543.85
2023-01-22T15:41:43.033Z,543.85
2023-01-22T15:43:43.559Z,543.85
2023-01-22T15:45:43.079Z,543.85
2023-01-22T15:47:43.711Z,543.85
2023-01-22T15:49:45.663Z,543.85
2023-01-22T15:51:43.900Z,543.85
2023-01-22T15:53:42.936Z,543.85
2023-01-22T15:55:44.827Z,543.85
2023-01-22T15:57:42.914Z,543.85
2023-01-22T15:59:43.593Z,543.85
2023-01-22T16:01:46.233Z,543.85
2023-01-22T16:03:43.743Z,543.85
2023-01-22T16:05:43.069Z,543.85
2023-01-22T16:07:43.541Z,543.85
2023-01-22T16:09:42.889Z,543.85
2023-01-22T16:11:43.639Z,543.85
2023-01-22T16:13:43.164Z,543.85
2023-01-22T16:15:43.415Z,543.85
2023-01-22T16:17:43.180Z,543.85
2023-01-22T16:19:43.560Z,543.85
2023-01-22T16:21:42.610Z,543.85
2023-01-22T16:23:42.977Z,543.85
2023-01-22T16:25:43.704Z,543.85
2023-01-22T16:27:42.932Z,543.85
2023-01-22T16:29:43.297Z,543.85
2023-01-22T16:31:43.981Z,543.85
2023-01-22T16:33:43.544Z,543.85
2023-01-22T16:35:42.840Z,543.85
2023-01-22T16:37:43.083Z,543.85
2023-01-22T16:39:43.662Z,543.85
2023-01-22T16:41:47.986Z,543.85
2023-01-22T16:43:43.356Z,543.85
2023-01-22T16:45:42.767Z,543.85
2023-01-22T16:47:43.695Z,543.85
2023-01-22T16:49:43.029Z,543.85
2023-01-22T16:51:43.199Z,543.85
2023-01-22T16:54:03.189Z,543.85
2023-01-22T16:55:43.030Z,543.85
2023-01-22T16:57:43.509Z,543.85
2023-01-22T16:59:42.925Z,543.85
2023-01-22T17:01:46.927Z,543.85
2023-01-22T17:03:43.862Z,543.85
2023-01-22T17:05:42.964Z,543.85
2023-01-22T17:07:56.835Z,543.85
2023-01-22T17:09:42.849Z,543.85
2023-01-22T17:11:43.396Z,543.85
2023-01-22T17:13:43.026Z,543.85
2023-01-22T17:15:43.654Z,543.85
2023-01-22T17:17:42.889Z,543.85
2023-01-22T17:19:43.327Z,543.85
2023-01-22T17:21:58.333Z,543.85
2023-01-22T17:23:43.134Z,543.85
2023-01-22T17:25:42.892Z,543.85
2023-01-22T17:27:44.524Z,543.85
2023-01-22T17:29:42.676Z,543.85
2023-01-22T17:31:44.372Z,543.85
2023-01-22T17:33:48.153Z,543.85
2023-01-22T17:35:44.079Z,543.85
2023-01-22T17:37:42.733Z,543.85
2023-01-22T17:39:46.743Z,543.85
2023-01-22T17:41:43.670Z,543.85
2023-01-22T17:43:43.099Z,543.85
2023-01-22T17:45:43.585Z,543.85
2023-01-22T17:47:43.676Z,543.85
2023-01-22T17:49:43.724Z,543.85
2023-01-22T17:51:43.397Z,543.85
2023-01-22T17:53:43.837Z,543.85
2023-01-22T17:55:44.101Z,543.85
2023-01-22T17:57:43.763Z,543.85
2023-01-22T17:59:43.097Z,543.85
2023-01-22T18:01:46.272Z,543.85
2023-01-22T18:03:43.503Z,543.85
2023-01-22T18:05:49.899Z,543.85
2023-01-22T18:07:42.873Z,543.85
2023-01-22T18:09:43.693Z,543.85
2023-01-22T18:11:43.383Z,543.85
2023-01-22T18:13:43.623Z,543.85
2023-01-22T18:15:43.906Z,543.85
2023-01-22T18:17:43.962Z,543.85
2023-01-22T18:19:43.522Z,543.85
2023-01-22T18:21:43.762Z,543.85
2023-01-22T18:23:43.511Z,543.85
2023-01-22T18:25:44.012Z,543.85
2023-01-22T18:27:43.266Z,543.85
2023-01-22T18:29:43.323Z,543.85
2023-01-22T18:31:44.422Z,543.85
2023-01-22T18:33:43.583Z,543.85
2023-01-22T18:35:43.505Z,543.85
2023-01-22T18:37:43.366Z,543.85
2023-01-22T18:39:43.012Z,543.85
2023-01-22T18:41:43.295Z,543.85
2023-01-22T18:43:42.856Z,543.85
2023-01-22T18:45:43.932Z,543.85
2023-01-22T18:47:43.462Z,543.85
2023-01-22T18:49:43.235Z,543.85
2023-01-22T18:51:43.127Z,543.85
2023-01-22T18:53:43.376Z,543.85
2023-01-22T18:55:43.586Z,543.85
2023-01-22T18:57:43.167Z,543.85
2023-01-22T18:59:43.670Z,543.85
2023-01-22T19:01:47.076Z,543.85
2023-01-22T19:03:44.049Z,543.85
2023-01-22T19:05:43.535Z,543.85
2023-01-22T19:07:44.799Z,543.85
2023-01-22T19:09:42.943Z,543.85
2023-01-22T19:11:43.359Z,543.85
2023-01-22T19:13:43.571Z,543.85
2023-01-22T19:15:43.931Z,543.85
2023-01-22T19:17:43.108Z,543.85
2023-01-22T19:19:44.322Z,543.85
2023-01-22T19:21:42.868Z,543.85
2023-01-22T19:23:43.375Z,543.85
2023-01-22T19:25:43.586Z,543.85
2023-01-22T19:27:43.563Z,543.85
2023-01-22T19:29:42.645Z,543.85
2023-01-22T19:31:44.263Z,543.85
2023-01-22T19:33:43.160Z,543.85
2023-01-22T19:35:43.995Z,543.85
2023-01-22T19:37:45.141Z,543.85
2023-01-22T19:39:43.591Z,543.85
2023-01-22T19:41:42.977Z,543.85
2023-01-22T19:43:43.654Z,543.85
2023-01-22T19:45:43.542Z,543.85
2023-01-22T19:47:44.034Z,543.85
2023-01-22T19:49:42.971Z,543.85
2023-01-22T19:51:42.896Z,543.85
2023-01-22T19:53:43.221Z,543.85
2023-01-22T19:55:43.403Z,543.85
2023-01-22T19:57:43.586Z,543.85
2023-01-22T19:59:42.848Z,543.85
2023-01-22T20:01:46.783Z,543.85
2023-01-22T20:03:43.955Z,543.85
2023-01-22T20:05:43.621Z,543.85
2023-01-22T20:07:43.547Z,543.85
2023-01-22T20:09:43.112Z,543.85
2023-01-22T20:11:42.754Z,543.85
2023-01-22T20:13:43.322Z,543.85
2023-01-22T20:15:43.061Z,543.85
2023-01-22T20:17:43.787Z,543.85
2023-01-22T20:19:42.963Z,543.85
2023-01-22T20:21:43.404Z,543.85
2023-01-22T20:23:42.968Z,543.85
2023-01-22T20:25:45.077Z,543.85
2023-01-22T20:27:43.182Z,543.85
2023-01-22T20:29:43.608Z,543.85
2023-01-22T20:31:43.828Z,543.85
2023-01-22T20:33:42.997Z,543.85
2023-01-22T20:35:43.576Z,543.85
2023-01-22T20:37:42.615Z,543.85
2023-01-22T20:39:43.440Z,543.85
2023-01-22T20:41:42.840Z,543.85
2023-01-22T20:43:43.496Z,543.85
2023-01-22T20:45:43.678Z,543.85
2023-01-22T20:47:43.555Z,543.85
2023-01-22T20:49:42.955Z,543.85
2023-01-22T20:51:44.718Z,543.85
2023-01-22T20:53:43.636Z,543.85
2023-01-22T20:55:59.084Z,543.85
2023-01-22T20:57:43.723Z,543.85
2023-01-22T20:59:43.126Z,543.85
2023-01-22T21:01:47.811Z,543.85
2023-01-22T21:03:43.339Z,543.85
2023-01-22T21:05:43.881Z,543.85
2023-01-22T21:07:44.436Z,543.85
2023-01-22T21:09:43.723Z,543.85
2023-01-22T21:11:43.208Z,543.85
2023-01-22T21:13:43.526Z,543.85
2023-01-22T21:15:43.119Z,543.85
2023-01-22T21:17:44.220Z,543.85
2023-01-22T21:19:44.375Z,543.85
2023-01-22T21:21:42.628Z,543.85
2023-01-22T21:23:43.184Z,543.85
2023-01-22T21:25:43.661Z,543.85
2023-01-22T21:27:43.014Z,543.85
2023-01-22T21:29:43.646Z,543.85
2023-01-22T21:31:44.208Z,543.85
2023-01-22T21:33:42.903Z,543.85
2023-01-22T21:35:43.199Z,543.85
2023-01-22T21:37:42.578Z,543.85
2023-01-22T21:39:43.439Z,543.85
2023-01-22T21:41:43.244Z,543.85
2023-01-22T21:43:43.653Z,543.85
2023-01-22T21:45:43.418Z,543.85
2023-01-22T21:47:42.946Z,543.85
2023-01-22T21:49:43.485Z,543.85
2023-01-22T21:51:43.251Z,543.85
2023-01-22T21:53:45.500Z,543.85
2023-01-22T21:55:43.357Z,543.85
2023-01-22T21:57:42.742Z,543.85
2023-01-22T21:59:43.153Z,543.85
2023-01-22T22:01:43.300Z,543.85
2023-01-22T22:03:43.257Z,543.85
2023-01-22T22:05:43.186Z,543.85
2023-01-22T22:07:43.979Z,543.85
2023-01-22T22:09:43.418Z,543.85
2023-01-22T22:11:43.061Z,543.85
2023-01-22T22:13:43.336Z,543.85
2023-01-22T22:15:42.942Z,543.85
2023-01-22T22:17:43.927Z,543.85
2023-01-22T22:19:43.035Z,543.85
2023-01-22T22:21:43.588Z,543.85
2023-01-22T22:23:43.061Z,543.85
2023-01-22T22:25:42.833Z,543.85
2023-01-22T22:27:43.334Z,543.85
2023-01-22T22:29:42.767Z,543.85
2023-01-22T22:31:44.133Z,543.85
2023-01-22T22:33:43.160Z,543.85
2023-01-22T22:35:43.556Z,543.85
2023-01-22T22:37:43.015Z,543.85
2023-01-22T22:39:43.595Z,543.85
2023-01-22T22:41:45.144Z,543.85
2023-01-22T22:43:43.388Z,543.85
2023-01-22T22:45:42.974Z,543.85
2023-01-22T22:47:43.588Z,543.85
2023-01-22T22:49:45.660Z,543.85
2023-01-22T22:51:43.641Z,543.85
2023-01-22T22:53:42.955Z,543.85
2023-01-22T22:55:43.486Z,543.85
2023-01-22T22:57:42.973Z,543.85
2023-01-22T22:59:43.700Z,543.85
2023-01-22T23:01:43.571Z,543.85
2023-01-22T23:03:43.562Z,543.85
2023-01-22T23:05:43.681Z,543.85
2023-01-22T23:07:43.421Z,543.85
2023-01-22T23:09:43.062Z,543.85
2023-01-22T23:11:43.582Z,543.85
2023-01-22T23:13:42.989Z,543.85
2023-01-22T23:15:43.556Z,543.85
2023-01-22T23:17:43.576Z,543.85
2023-01-22T23:19:42.622Z,543.85
2023-01-22T23:21:43.271Z,543.85
2023-01-22T23:23:43.131Z,543.85
2023-01-22T23:25:43.537Z,543.85
2023-01-22T23:27:42.956Z,543.85
2023-01-22T23:29:43.518Z,543.85
2023-01-22T23:31:44.438Z,543.85
2023-01-22T23:33:43.776Z,543.85
2023-01-22T23:35:43.059Z,543.85
2023-01-22T23:37:43.627Z,543.85
2023-01-22T23:39:43.242Z,543.85
2023-01-22T23:41:43.757Z,543.85
2023-01-22T23:43:43.274Z,543.85
2023-01-22T23:45:45.606Z,543.85
2023-01-22T23:47:43.907Z,543.85
2023-01-22T23:49:42.851Z,543.85
2023-01-22T23:51:43.873Z,543.85
2023-01-22T23:53:43.407Z,543.85
2023-01-22T23:55:43.894Z,543.85
2023-01-22T23:57:43.191Z,543.85
2023-01-22T23:59:43.885Z,543.85
